CSCL Fuzhou — ELYA7 — position and weather

sailwx.info

Track history (hours):
 
Tides and Currents Weather Stations Pressure Air Temp Water Temp Dewpoint Dewpoint Depression Visibility Wind Speed Wind Dir Waves Ship Positions

CSCL Fuzhou

Last reported at 2018-Jun-25 04:35 UTC. Time now 2018-Jun-25 17:33 UTC.
Position N 36°05' E 120°16'.

Length 207.4 m; beam 29.8 m; draft 11.4 m.

Type: Cargo ship. MMSI: 636016483.

Date/timePositionNaut miles runAvg speedWind from/ knotsBaromVisibWave heightAir tempDewpointWater temp
2018-Jun-25 04:35N 36°05' E 120°16'0 0.1
2018-Jun-25 04:14N 36°05' E 120°16'0 0.0
2018-Jun-25 02:44N 36°05' E 120°16'0 0.1
2018-Jun-25 01:49N 36°05' E 120°16'0 0.0
2018-Jun-25 01:29N 36°05' E 120°16'0 0.1
2018-Jun-25 00:56N 36°05' E 120°16'0 0.1
2018-Jun-25 00:17N 36°05' E 120°16'0 0.0
2018-Jun-24 23:44N 36°05' E 120°16'0 0.2
2018-Jun-24 23:29N 36°05' E 120°16'0 0.5
2018-Jun-24 23:00N 36°04' E 120°16'3 5.7
2018-Jun-24 22:24N 36°02' E 120°19'8 9.0
2018-Jun-24 21:27N 36°00' E 120°29'  
2018-Jun-21 02:14N 22°55' E 119°59'417.7
2018-Jun-21 02:00N 22°52' E 120°02'918.0
2018-Jun-21 01:30N 22°44' E 120°06'918.2
2018-Jun-21 01:00N 22°36' E 120°11'713.2
2018-Jun-21 00:29N 22°33' E 120°18'1 2.6
2018-Jun-21 00:00N 22°33' E 120°19'0 0.1
2018-Jun-20 23:30N 22°33' E 120°19'0 0.0
2018-Jun-20 23:00N 22°33' E 120°19'0 0.0
2018-Jun-20 22:30N 22°33' E 120°19'0 0.0
2018-Jun-20 22:00N 22°33' E 120°19'0 0.0
2018-Jun-20 21:30N 22°33' E 120°19'0 0.1
2018-Jun-20 21:00N 22°33' E 120°19'0 0.1
2018-Jun-20 20:30N 22°33' E 120°19'0 0.0
2018-Jun-20 20:00N 22°33' E 120°19'0 0.0
2018-Jun-20 19:30N 22°33' E 120°19'0 0.0
2018-Jun-20 19:00N 22°33' E 120°19'0 0.0
2018-Jun-20 18:30N 22°33' E 120°19'0 0.0
2018-Jun-20 18:00N 22°33' E 120°19'0 0.0
2018-Jun-20 17:30N 22°33' E 120°19'0 0.0
2018-Jun-20 16:54N 22°33' E 120°19'0 0.0
2018-Jun-20 16:30N 22°33' E 120°19'0 0.0
2018-Jun-20 16:00N 22°33' E 120°19'0 0.0
2018-Jun-20 15:30N 22°33' E 120°19'0 0.0
2018-Jun-20 15:00N 22°33' E 120°19'0 0.0
2018-Jun-20 14:30N 22°33' E 120°19'0 0.0
2018-Jun-20 14:00N 22°33' E 120°19'0 0.0
2018-Jun-20 13:18N 22°33' E 120°19'0 0.0
2018-Jun-20 12:54N 22°33' E 120°19'0 0.0
2018-Jun-20 12:30N 22°33' E 120°19'0 0.0
2018-Jun-20 12:00N 22°33' E 120°19'0 0.0
2018-Jun-20 11:30N 22°33' E 120°19'0 0.0
2018-Jun-20 11:00N 22°33' E 120°19'0 0.0
2018-Jun-20 10:30N 22°33' E 120°19'0 0.0
2018-Jun-20 09:54N 22°33' E 120°19'0 0.0
2018-Jun-20 09:18N 22°33' E 120°19'0 0.0
2018-Jun-20 09:00N 22°33' E 120°19'0 0.0
2018-Jun-20 08:18N 22°33' E 120°19'0 0.0
2018-Jun-20 08:00N 22°33' E 120°19'0 0.0
2018-Jun-20 07:30N 22°33' E 120°19'0 0.0
2018-Jun-20 06:54N 22°33' E 120°19'0 0.0
2018-Jun-20 06:30N 22°33' E 120°19'0 0.3
2018-Jun-20 06:00N 22°33' E 120°19'4 7.3
2018-Jun-20 05:30N 22°32' E 120°15'613.0
2018-Jun-20 05:00N 22°27' E 120°12'918.8
2018-Jun-20 04:30N 22°17' E 120°11'918.5
2018-Jun-20 04:00N 22°08' E 120°10'  
Track history (hours):
 
Tides and Currents Weather Stations Pressure Air Temp Water Temp Dewpoint Dewpoint Depression Visibility Wind Speed Wind Dir Waves Ship Positions

CSCL Fuzhou

Last reported at 2018-Jun-25 04:35 UTC. Time now 2018-Jun-25 17:33 UTC.
Position N 36°05' E 120°16'.

Length 207.4 m; beam 29.8 m; draft 11.4 m.

Type: Cargo ship. MMSI: 636016483.

Date/timePositionNaut miles runAvg speedWind from/ knotsBaromVisibWave heightAir tempDewpointWater temp
2018-Jun-25 04:35N 36°05' E 120°16'0 0.1
2018-Jun-25 04:14N 36°05' E 120°16'0 0.0
2018-Jun-25 02:44N 36°05' E 120°16'0 0.1
2018-Jun-25 01:49N 36°05' E 120°16'0 0.0
2018-Jun-25 01:29N 36°05' E 120°16'0 0.1
2018-Jun-25 00:56N 36°05' E 120°16'0 0.1
2018-Jun-25 00:17N 36°05' E 120°16'0 0.0
2018-Jun-24 23:44N 36°05' E 120°16'0 0.2
2018-Jun-24 23:29N 36°05' E 120°16'0 0.5
2018-Jun-24 23:00N 36°04' E 120°16'3 5.7
2018-Jun-24 22:24N 36°02' E 120°19'8 9.0
2018-Jun-24 21:27N 36°00' E 120°29'  
2018-Jun-21 02:14N 22°55' E 119°59'417.7
2018-Jun-21 02:00N 22°52' E 120°02'918.0
2018-Jun-21 01:30N 22°44' E 120°06'918.2
2018-Jun-21 01:00N 22°36' E 120°11'713.2
2018-Jun-21 00:29N 22°33' E 120°18'1 2.6
2018-Jun-21 00:00N 22°33' E 120°19'0 0.1
2018-Jun-20 23:30N 22°33' E 120°19'0 0.0
2018-Jun-20 23:00N 22°33' E 120°19'0 0.0
2018-Jun-20 22:30N 22°33' E 120°19'0 0.0
2018-Jun-20 22:00N 22°33' E 120°19'0 0.0
2018-Jun-20 21:30N 22°33' E 120°19'0 0.1
2018-Jun-20 21:00N 22°33' E 120°19'0 0.1
2018-Jun-20 20:30N 22°33' E 120°19'0 0.0
2018-Jun-20 20:00N 22°33' E 120°19'0 0.0
2018-Jun-20 19:30N 22°33' E 120°19'0 0.0
2018-Jun-20 19:00N 22°33' E 120°19'0 0.0
2018-Jun-20 18:30N 22°33' E 120°19'0 0.0
2018-Jun-20 18:00N 22°33' E 120°19'0 0.0
2018-Jun-20 17:30N 22°33' E 120°19'0 0.0
2018-Jun-20 16:54N 22°33' E 120°19'0 0.0
2018-Jun-20 16:30N 22°33' E 120°19'0 0.0
2018-Jun-20 16:00N 22°33' E 120°19'0 0.0
2018-Jun-20 15:30N 22°33' E 120°19'0 0.0
2018-Jun-20 15:00N 22°33' E 120°19'0 0.0
2018-Jun-20 14:30N 22°33' E 120°19'0 0.0
2018-Jun-20 14:00N 22°33' E 120°19'0 0.0
2018-Jun-20 13:18N 22°33' E 120°19'0 0.0
2018-Jun-20 12:54N 22°33' E 120°19'0 0.0
2018-Jun-20 12:30N 22°33' E 120°19'0 0.0
2018-Jun-20 12:00N 22°33' E 120°19'0 0.0
2018-Jun-20 11:30N 22°33' E 120°19'0 0.0
2018-Jun-20 11:00N 22°33' E 120°19'0 0.0
2018-Jun-20 10:30N 22°33' E 120°19'0 0.0
2018-Jun-20 09:54N 22°33' E 120°19'0 0.0
2018-Jun-20 09:18N 22°33' E 120°19'0 0.0
2018-Jun-20 09:00N 22°33' E 120°19'0 0.0
2018-Jun-20 08:18N 22°33' E 120°19'0 0.0
2018-Jun-20 08:00N 22°33' E 120°19'0 0.0
2018-Jun-20 07:30N 22°33' E 120°19'0 0.0
2018-Jun-20 06:54N 22°33' E 120°19'0 0.0
2018-Jun-20 06:30N 22°33' E 120°19'0 0.3
2018-Jun-20 06:00N 22°33' E 120°19'4 7.3
2018-Jun-20 05:30N 22°32' E 120°15'613.0
2018-Jun-20 05:00N 22°27' E 120°12'918.8
2018-Jun-20 04:30N 22°17' E 120°11'918.5
2018-Jun-20 04:00N 22°08' E 120°10'  

Dump ship's entire track history